createdAt,value
2023-09-20T00:00:08.272Z,14.33
2023-09-20T00:02:09.892Z,14.35
2023-09-20T00:04:11.473Z,14.39
2023-09-20T00:06:14.376Z,14.38
2023-09-20T00:08:15.966Z,14.34
2023-09-20T00:10:18.020Z,14.34
2023-09-20T00:12:19.515Z,14.39
2023-09-20T00:14:21.090Z,14.43
2023-09-20T00:16:22.713Z,14.37
2023-09-20T00:18:25.309Z,14.39
2023-09-20T00:20:26.891Z,14.35
2023-09-20T00:22:29.733Z,14.36
2023-09-20T00:24:31.229Z,14.36
2023-09-20T00:26:33.152Z,14.20
2023-09-20T00:28:34.707Z,14.25
2023-09-20T00:30:36.197Z,14.24
2023-09-20T00:32:38.923Z,14.24
2023-09-20T00:34:40.628Z,14.18
2023-09-20T00:36:42.129Z,14.21
2023-09-20T00:38:45.046Z,14.30
2023-09-20T00:40:46.564Z,14.23
2023-09-20T00:42:49.942Z,14.36
2023-09-20T00:44:51.455Z,14.30
2023-09-20T00:46:53.450Z,14.27
2023-09-20T00:48:55.312Z,14.27
2023-09-20T00:50:57.685Z,14.25
2023-09-20T00:52:59.942Z,14.31
2023-09-20T00:55:02.826Z,14.25
2023-09-20T00:57:04.749Z,14.23
2023-09-20T00:59:06.398Z,14.17
2023-09-20T01:01:08.016Z,14.26
2023-09-20T01:03:10.389Z,14.32
2023-09-20T01:05:12.130Z,14.29
2023-09-20T01:07:13.756Z,14.29
2023-09-20T01:09:15.261Z,14.33
2023-09-20T01:11:18.202Z,14.39
2023-09-20T01:13:19.842Z,14.25
2023-09-20T01:15:21.627Z,14.38
2023-09-20T01:17:23.235Z,14.43
2023-09-20T01:19:24.864Z,14.35
2023-09-20T01:21:26.387Z,14.27
2023-09-20T01:23:29.290Z,14.39
2023-09-20T01:25:32.549Z,14.22
2023-09-20T01:27:34.836Z,14.25
2023-09-20T01:29:36.363Z,13.99
2023-09-20T01:31:38.018Z,13.98
2023-09-20T01:33:39.692Z,13.99
2023-09-20T01:35:41.238Z,13.85
2023-09-20T01:37:42.826Z,13.92
2023-09-20T01:39:45.706Z,13.81
2023-09-20T01:41:47.208Z,13.80
2023-09-20T01:43:48.765Z,13.81
2023-09-20T01:45:50.286Z,13.68
2023-09-20T01:47:53.147Z,13.78
2023-09-20T01:49:54.843Z,13.85
2023-09-20T01:51:56.424Z,13.76
2023-09-20T01:53:57.916Z,13.74
2023-09-20T01:56:00.814Z,13.73
2023-09-20T01:58:02.332Z,13.73
2023-09-20T02:00:04.910Z,13.65
2023-09-20T02:02:06.427Z,13.73
2023-09-20T02:04:08.071Z,13.71
2023-09-20T02:06:09.576Z,13.73
2023-09-20T02:08:11.305Z,13.72
2023-09-20T02:10:13.155Z,13.71
2023-09-20T02:12:15.992Z,13.68
2023-09-20T02:14:17.546Z,13.80
2023-09-20T02:16:19.100Z,13.79
2023-09-20T02:18:20.681Z,13.77
2023-09-20T02:20:23.782Z,13.77
2023-09-20T02:22:25.322Z,13.76
2023-09-20T02:24:26.840Z,13.80
2023-09-20T02:26:28.402Z,13.76
2023-09-20T02:28:32.424Z,13.70
2023-09-20T02:30:34.186Z,13.68
2023-09-20T02:32:36.184Z,13.70
2023-09-20T02:34:37.792Z,13.69
2023-09-20T02:36:39.292Z,13.72
2023-09-20T02:38:41.013Z,13.73
2023-09-20T02:40:42.802Z,13.76
2023-09-20T02:42:45.742Z,13.75
2023-09-20T02:44:48.685Z,13.74
2023-09-20T02:46:50.196Z,13.80
2023-09-20T02:48:51.726Z,13.81
2023-09-20T02:50:53.352Z,13.78
2023-09-20T02:52:54.868Z,13.73
2023-09-20T02:54:56.381Z,13.82
2023-09-20T02:56:57.993Z,13.70
2023-09-20T02:58:59.519Z,13.64
2023-09-20T03:01:02.404Z,13.77
2023-09-20T03:03:04.777Z,13.67
2023-09-20T03:05:07.027Z,13.71
2023-09-20T03:07:08.601Z,13.71
2023-09-20T03:09:10.115Z,13.59
2023-09-20T03:11:11.659Z,13.50
2023-09-20T03:13:13.948Z,13.69
2023-09-20T03:15:16.942Z,13.61
2023-09-20T03:17:19.865Z,13.73
2023-09-20T03:19:21.412Z,13.60
2023-09-20T03:21:23.018Z,13.60
2023-09-20T03:23:24.538Z,13.53
2023-09-20T03:25:26.868Z,13.65
2023-09-20T03:27:28.370Z,13.66
2023-09-20T03:29:29.966Z,13.57
2023-09-20T03:31:31.980Z,13.46
2023-09-20T03:33:34.977Z,13.43
2023-09-20T03:35:36.566Z,13.45
2023-09-20T03:37:38.204Z,13.33
2023-09-20T03:39:39.717Z,13.30
2023-09-20T03:41:41.240Z,13.33
2023-09-20T03:43:42.807Z,13.32
2023-09-20T03:45:44.301Z,13.32
2023-09-20T03:47:47.517Z,13.24
2023-09-20T03:49:52.698Z,13.25
2023-09-20T03:51:54.207Z,13.26
2023-09-20T03:53:55.789Z,13.33
2023-09-20T03:55:57.310Z,13.23
2023-09-20T03:57:58.789Z,13.16
2023-09-20T04:00:00.408Z,13.10
2023-09-20T04:02:01.927Z,13.08
2023-09-20T04:04:03.578Z,13.18
2023-09-20T04:06:06.553Z,13.19
2023-09-20T04:08:08.119Z,13.25
2023-09-20T04:10:10.239Z,13.29
2023-09-20T04:12:12.182Z,13.24
2023-09-20T04:14:13.800Z,13.30
2023-09-20T04:16:15.382Z,13.36
2023-09-20T04:18:17.189Z,13.31
2023-09-20T04:20:19.496Z,13.37
2023-09-20T04:22:22.456Z,13.48
2023-09-20T04:24:23.991Z,13.45
2023-09-20T04:26:25.556Z,13.53
2023-09-20T04:28:27.091Z,13.49
2023-09-20T04:30:28.681Z,13.44
2023-09-20T04:32:30.544Z,13.35
2023-09-20T04:34:32.105Z,13.27
2023-09-20T04:36:33.617Z,13.26
2023-09-20T04:38:36.545Z,13.31
2023-09-20T04:40:38.242Z,13.19
2023-09-20T04:42:39.822Z,13.15
2023-09-20T04:44:41.387Z,13.16
2023-09-20T04:46:42.967Z,13.14
2023-09-20T04:48:44.590Z,13.16
2023-09-20T04:50:49.790Z,13.13
2023-09-20T04:52:51.290Z,13.11
2023-09-20T04:54:55.278Z,13.13
2023-09-20T04:56:56.832Z,13.18
2023-09-20T04:58:58.324Z,13.16
2023-09-20T05:00:59.909Z,13.13
2023-09-20T05:03:01.735Z,13.18
2023-09-20T05:05:03.748Z,13.14
2023-09-20T05:07:05.291Z,13.13
2023-09-20T05:09:06.778Z,13.08
2023-09-20T05:11:09.862Z,13.07
2023-09-20T05:13:11.836Z,13.10
2023-09-20T05:15:13.405Z,13.09
2023-09-20T05:17:14.968Z,13.08
2023-09-20T05:19:16.504Z,13.10
2023-09-20T05:21:18.016Z,13.21
2023-09-20T05:23:19.579Z,13.13
2023-09-20T05:25:21.113Z,13.00
2023-09-20T05:27:24.012Z,13.11
2023-09-20T05:29:25.637Z,13.12
2023-09-20T05:31:27.284Z,13.08
2023-09-20T05:33:28.847Z,13.10
2023-09-20T05:35:30.464Z,13.20
2023-09-20T05:37:32.018Z,13.10
2023-09-20T05:39:33.715Z,13.13
2023-09-20T05:41:35.339Z,13.13
2023-09-20T05:43:38.325Z,13.20
2023-09-20T05:45:39.866Z,13.24
2023-09-20T05:47:41.779Z,13.39
2023-09-20T05:49:43.315Z,13.43
2023-09-20T05:51:44.835Z,13.43
2023-09-20T05:53:46.384Z,13.44
2023-09-20T05:55:47.901Z,13.44
2023-09-20T05:57:49.409Z,13.57
2023-09-20T05:59:52.486Z,13.59
2023-09-20T06:01:54.074Z,13.61
2023-09-20T06:03:55.632Z,13.75
2023-09-20T06:05:57.247Z,13.71
2023-09-20T06:07:58.767Z,13.59
2023-09-20T06:10:00.270Z,13.51
2023-09-20T06:12:01.794Z,13.66
2023-09-20T06:14:03.474Z,13.76
2023-09-20T06:16:07.933Z,13.81
2023-09-20T06:18:09.437Z,13.85
2023-09-20T06:20:11.764Z,14.03
2023-09-20T06:22:13.265Z,14.06
2023-09-20T06:24:14.754Z,14.22
2023-09-20T06:26:16.329Z,14.19
2023-09-20T06:28:17.847Z,14.22
2023-09-20T06:30:19.599Z,14.26
2023-09-20T06:32:22.545Z,14.10
2023-09-20T06:34:24.111Z,14.27
2023-09-20T06:36:25.648Z,14.37
2023-09-20T06:38:27.160Z,14.44
2023-09-20T06:40:28.692Z,14.57
2023-09-20T06:42:30.462Z,14.55
2023-09-20T06:44:33.908Z,14.57
2023-09-20T06:46:35.437Z,14.69
2023-09-20T06:48:38.836Z,14.62
2023-09-20T06:50:40.494Z,14.63
2023-09-20T06:52:42.393Z,14.64
2023-09-20T06:54:43.891Z,14.76
2023-09-20T06:56:45.435Z,14.80
2023-09-20T06:58:47.047Z,14.86
2023-09-20T07:00:49.427Z,14.95
2023-09-20T07:02:51.077Z,14.97
2023-09-20T07:04:53.988Z,15.08
2023-09-20T07:06:56.171Z,15.20
2023-09-20T07:08:57.665Z,15.30
2023-09-20T07:10:59.171Z,15.37
2023-09-20T07:13:00.949Z,15.51
2023-09-20T07:15:02.667Z,15.64
2023-09-20T07:17:04.555Z,15.63
2023-09-20T07:19:07.141Z,15.65
2023-09-20T07:21:10.022Z,15.63
2023-09-20T07:23:11.822Z,15.60
2023-09-20T07:25:13.479Z,15.61
2023-09-20T07:27:15.000Z,15.74
2023-09-20T07:29:16.660Z,15.87
2023-09-20T07:31:18.290Z,16.04
2023-09-20T07:33:19.964Z,16.12
2023-09-20T07:35:21.655Z,16.28
2023-09-20T07:37:24.679Z,16.40
2023-09-20T07:39:26.252Z,16.49
2023-09-20T07:41:27.980Z,16.56
2023-09-20T07:43:29.944Z,16.58
2023-09-20T07:45:34.939Z,16.65
2023-09-20T07:47:36.730Z,16.61
2023-09-20T07:49:38.499Z,16.81
2023-09-20T07:51:40.730Z,16.87
2023-09-20T07:53:43.785Z,17.02
2023-09-20T07:55:58.042Z,17.12
2023-09-20T07:57:59.580Z,17.17
2023-09-20T08:00:01.112Z,17.15
2023-09-20T08:02:02.709Z,17.31
2023-09-20T08:04:04.824Z,17.32
2023-09-20T08:06:06.663Z,17.31
2023-09-20T08:08:09.302Z,17.32
2023-09-20T08:10:12.185Z,17.41
2023-09-20T08:12:13.700Z,17.49
2023-09-20T08:14:15.218Z,17.56
2023-09-20T08:16:17.087Z,17.62
2023-09-20T08:18:18.979Z,17.60
2023-09-20T08:20:20.623Z,17.77
2023-09-20T08:22:22.329Z,17.75
2023-09-20T08:24:23.988Z,17.78
2023-09-20T08:26:26.916Z,17.75
2023-09-20T08:28:28.445Z,17.93
2023-09-20T08:30:30.049Z,18.04
2023-09-20T08:32:31.742Z,18.16
2023-09-20T08:34:33.321Z,18.25
2023-09-20T08:36:34.810Z,18.34
2023-09-20T08:38:36.408Z,18.38
2023-09-20T08:40:38.272Z,18.26
2023-09-20T08:42:41.415Z,18.42
2023-09-20T08:44:48.740Z,18.54
2023-09-20T08:46:52.204Z,18.55
2023-09-20T08:48:53.951Z,18.73
2023-09-20T08:50:56.315Z,18.81
2023-09-20T08:52:58.434Z,18.82
2023-09-20T08:55:00.342Z,18.79
2023-09-20T08:57:02.474Z,18.87
2023-09-20T08:59:05.885Z,18.87
2023-09-20T09:01:10.392Z,18.88
2023-09-20T09:03:12.191Z,19.01
2023-09-20T09:05:14.455Z,18.87
2023-09-20T09:07:16.487Z,18.90
2023-09-20T09:09:18.174Z,18.87
2023-09-20T09:11:19.937Z,18.94
2023-09-20T09:13:21.962Z,19.08
2023-09-20T09:15:26.139Z,18.99
2023-09-20T09:17:27.943Z,19.00
2023-09-20T09:19:29.635Z,19.07
2023-09-20T09:21:31.301Z,19.12
2023-09-20T09:23:34.033Z,19.24
2023-09-20T09:25:35.528Z,19.15
2023-09-20T09:27:37.065Z,19.06
2023-09-20T09:29:38.757Z,19.18
2023-09-20T09:31:41.750Z,19.05
2023-09-20T09:33:43.527Z,19.23
2023-09-20T09:35:48.389Z,19.20
2023-09-20T09:37:51.389Z,19.27
2023-09-20T09:39:59.835Z,19.41
2023-09-20T09:42:01.336Z,19.51
2023-09-20T09:44:02.844Z,19.55
2023-09-20T09:46:06.379Z,19.66
2023-09-20T09:48:09.647Z,19.73
2023-09-20T09:50:11.984Z,19.66
2023-09-20T09:52:14.274Z,19.76
2023-09-20T09:54:16.661Z,19.60
2023-09-20T09:56:18.836Z,19.74
2023-09-20T09:58:20.398Z,19.74
2023-09-20T10:00:22.072Z,19.96
2023-09-20T10:02:26.770Z,20.01
2023-09-20T10:04:32.548Z,19.98
2023-09-20T10:06:35.820Z,20.01
2023-09-20T10:08:39.488Z,20.05
2023-09-20T10:10:41.156Z,20.12
2023-09-20T10:12:44.543Z,20.23
2023-09-20T10:14:47.147Z,20.27
2023-09-20T10:16:49.329Z,20.26
2023-09-20T10:19:00.681Z,20.29
2023-09-20T10:21:06.983Z,20.33
2023-09-20T10:23:08.558Z,20.39
2023-09-20T10:25:29.371Z,20.35
2023-09-20T10:27:32.719Z,20.42
2023-09-20T10:29:34.214Z,20.48
2023-09-20T10:31:39.935Z,20.55
2023-09-20T10:33:43.864Z,20.53
2023-09-20T10:35:46.913Z,20.49
2023-09-20T10:38:03.781Z,20.63
2023-09-20T10:40:07.752Z,20.67
2023-09-20T10:42:13.199Z,20.70
2023-09-20T10:44:30.464Z,20.75
2023-09-20T10:46:36.152Z,20.70
2023-09-20T10:48:41.871Z,20.57
2023-09-20T10:50:46.829Z,20.54
2023-09-20T10:52:55.267Z,20.54
2023-09-20T10:55:29.240Z,20.59
2023-09-20T10:57:32.285Z,20.45
2023-09-20T10:59:34.457Z,20.42
2023-09-20T11:01:36.382Z,20.52
2023-09-20T11:03:37.985Z,20.35
2023-09-20T11:05:40.427Z,20.41
2023-09-20T11:07:42.848Z,20.52
2023-09-20T11:09:48.308Z,20.59
2023-09-20T11:11:49.955Z,20.60
2023-09-20T11:13:52.870Z,20.68
2023-09-20T11:15:56.164Z,20.76
2023-09-20T11:17:57.740Z,20.88
2023-09-20T11:19:59.303Z,20.95
2023-09-20T11:22:01.182Z,21.04
2023-09-20T11:24:02.902Z,21.10
2023-09-20T11:26:04.834Z,21.09
2023-09-20T11:28:07.379Z,21.15
2023-09-20T11:30:11.002Z,21.22
2023-09-20T11:32:12.783Z,21.31
2023-09-20T11:34:14.479Z,21.40
2023-09-20T11:36:16.711Z,21.54
2023-09-20T11:38:18.614Z,21.57
2023-09-20T11:40:20.253Z,21.60
2023-09-20T11:42:25.806Z,21.77
2023-09-20T11:44:27.320Z,21.87
2023-09-20T11:46:32.147Z,21.90
2023-09-20T11:48:33.773Z,22.00
2023-09-20T11:50:35.545Z,22.11
2023-09-20T11:52:37.108Z,22.12
2023-09-20T11:54:39.271Z,22.17
2023-09-20T11:56:40.827Z,22.19
2023-09-20T11:58:43.269Z,22.24
2023-09-20T12:00:45.837Z,22.31
2023-09-20T12:02:49.471Z,22.40
2023-09-20T12:04:51.728Z,22.49
2023-09-20T12:06:53.246Z,22.63
2023-09-20T12:08:54.840Z,22.66
2023-09-20T12:10:56.498Z,22.82
2023-09-20T12:12:58.362Z,22.79
2023-09-20T12:14:59.910Z,22.85
2023-09-20T12:17:01.566Z,22.98
2023-09-20T12:19:04.527Z,23.02
2023-09-20T12:21:06.900Z,23.01
2023-09-20T12:23:08.439Z,23.17
2023-09-20T12:25:10.379Z,23.18
2023-09-20T12:27:11.891Z,23.21
2023-09-20T12:29:13.436Z,23.36
2023-09-20T12:31:15.008Z,23.50
2023-09-20T12:33:16.700Z,23.61
2023-09-20T12:35:19.784Z,23.60
2023-09-20T12:37:21.354Z,23.64
2023-09-20T12:39:22.872Z,23.56
2023-09-20T12:41:24.764Z,23.65
2023-09-20T12:43:26.365Z,23.73
2023-09-20T12:45:27.946Z,23.86
2023-09-20T12:47:29.499Z,23.92
2023-09-20T12:49:31.087Z,23.98
2023-09-20T12:51:33.997Z,24.06
2023-09-20T12:53:35.570Z,24.21
2023-09-20T12:55:38.583Z,24.24
2023-09-20T12:57:40.374Z,24.23
2023-09-20T12:59:41.940Z,24.33
2023-09-20T13:01:43.554Z,24.46
2023-09-20T13:03:45.821Z,24.58
2023-09-20T13:05:48.483Z,24.59
2023-09-20T13:07:51.360Z,24.77
2023-09-20T13:09:53.084Z,24.81
2023-09-20T13:11:54.730Z,24.83
2023-09-20T13:13:56.314Z,24.96
2023-09-20T13:15:58.297Z,25.05
2023-09-20T13:17:59.984Z,25.19
2023-09-20T13:20:01.559Z,25.22
2023-09-20T13:22:03.112Z,25.31
2023-09-20T13:24:06.619Z,25.45
2023-09-20T13:26:08.133Z,25.57
2023-09-20T13:28:09.880Z,25.60
2023-09-20T13:30:12.382Z,25.69
2023-09-20T13:32:13.863Z,25.85
2023-09-20T13:34:15.444Z,25.90
2023-09-20T13:36:17.138Z,25.89
2023-09-20T13:38:18.688Z,25.96
2023-09-20T13:40:21.818Z,26.07
2023-09-20T13:42:23.152Z,26.17
2023-09-20T13:44:24.840Z,26.23
2023-09-20T13:46:26.399Z,26.40
2023-09-20T13:48:28.057Z,26.58
2023-09-20T13:50:29.820Z,26.72
2023-09-20T13:52:31.472Z,26.62
2023-09-20T13:54:32.985Z,26.77
2023-09-20T13:56:35.908Z,26.88
2023-09-20T13:58:37.452Z,26.95
2023-09-20T14:00:39.015Z,27.04
2023-09-20T14:02:41.248Z,27.03
2023-09-20T14:04:42.988Z,27.13
2023-09-20T14:06:44.530Z,27.29
2023-09-20T14:08:46.084Z,27.37
2023-09-20T14:10:47.616Z,27.42
2023-09-20T14:12:51.450Z,27.40
2023-09-20T14:14:53.042Z,27.42
2023-09-20T14:16:54.609Z,27.51
2023-09-20T14:18:56.118Z,27.57
2023-09-20T14:21:01.998Z,27.59
2023-09-20T14:23:03.767Z,27.57
2023-09-20T14:25:06.033Z,27.67
2023-09-20T14:27:09.630Z,27.68
2023-09-20T14:29:12.515Z,27.69
2023-09-20T14:31:14.812Z,27.54
2023-09-20T14:33:16.470Z,27.54
2023-09-20T14:35:18.471Z,27.35
2023-09-20T14:37:20.150Z,27.38
2023-09-20T14:39:21.681Z,27.17
2023-09-20T14:41:23.285Z,26.80
2023-09-20T14:43:24.800Z,26.98
2023-09-20T14:45:29.299Z,26.77
2023-09-20T14:47:30.874Z,26.84
2023-09-20T14:49:32.408Z,26.73
2023-09-20T14:51:33.976Z,26.73
2023-09-20T14:53:35.510Z,26.78
2023-09-20T14:55:37.069Z,26.61
2023-09-20T14:57:38.833Z,26.48
2023-09-20T14:59:40.334Z,26.41
2023-09-20T15:01:43.243Z,26.28
2023-09-20T15:03:45.277Z,26.15
2023-09-20T15:05:47.079Z,26.08
2023-09-20T15:07:49.788Z,26.00
2023-09-20T15:09:51.376Z,25.73
2023-09-20T15:11:52.912Z,25.44
2023-09-20T15:13:54.451Z,25.31
2023-09-20T15:15:55.961Z,25.22
2023-09-20T15:17:59.807Z,25.17
2023-09-20T15:20:01.860Z,24.93
2023-09-20T15:22:05.341Z,24.88
2023-09-20T15:24:08.309Z,24.90
2023-09-20T15:26:10.876Z,24.95
2023-09-20T15:28:12.378Z,24.92
2023-09-20T15:30:14.541Z,24.89
2023-09-20T15:32:16.760Z,24.77
2023-09-20T15:34:19.664Z,24.77
2023-09-20T15:36:21.166Z,24.63
2023-09-20T15:38:22.717Z,24.55
2023-09-20T15:40:24.326Z,24.45
2023-09-20T15:42:25.810Z,24.49
2023-09-20T15:44:27.359Z,24.47
2023-09-20T15:46:28.881Z,24.34
2023-09-20T15:48:30.960Z,24.36
2023-09-20T15:50:33.882Z,24.34
2023-09-20T15:52:35.490Z,24.33
2023-09-20T15:54:37.108Z,24.32
2023-09-20T15:56:38.652Z,24.29
2023-09-20T15:58:40.242Z,24.14
2023-09-20T16:00:41.749Z,23.94
2023-09-20T16:02:43.819Z,23.99
2023-09-20T16:04:45.758Z,24.00
2023-09-20T16:06:48.752Z,23.99
2023-09-20T16:08:50.320Z,23.94
2023-09-20T16:10:51.838Z,23.88
2023-09-20T16:12:53.449Z,23.91
2023-09-20T16:14:55.283Z,23.86
2023-09-20T16:16:56.814Z,23.73
2023-09-20T16:18:58.648Z,23.71
2023-09-20T16:21:00.249Z,23.65
2023-09-20T16:23:04.324Z,23.59
2023-09-20T16:25:06.452Z,23.51
2023-09-20T16:27:08.072Z,23.53
2023-09-20T16:29:09.688Z,23.46
2023-09-20T16:31:12.575Z,23.39
2023-09-20T16:33:14.277Z,23.36
2023-09-20T16:35:16.895Z,23.30
2023-09-20T16:37:18.984Z,23.25
2023-09-20T16:39:21.847Z,23.24
2023-09-20T16:41:23.404Z,23.22
2023-09-20T16:43:25.071Z,23.19
2023-09-20T16:45:26.631Z,23.15
2023-09-20T16:47:28.186Z,23.14
2023-09-20T16:49:29.743Z,23.07
2023-09-20T16:51:31.348Z,23.08
2023-09-20T16:53:34.532Z,23.03
2023-09-20T16:55:37.632Z,23.01
2023-09-20T16:57:39.505Z,22.99
2023-09-20T16:59:41.121Z,22.93
2023-09-20T17:01:42.678Z,22.89
2023-09-20T17:03:44.278Z,22.84
2023-09-20T17:05:46.135Z,22.81
2023-09-20T17:07:47.738Z,22.76
2023-09-20T17:09:49.259Z,22.70
2023-09-20T17:11:52.167Z,22.68
2023-09-20T17:13:53.664Z,22.64
2023-09-20T17:15:55.173Z,22.58
2023-09-20T17:17:56.768Z,22.53
2023-09-20T17:19:58.491Z,22.46
2023-09-20T17:22:00.031Z,22.41
2023-09-20T17:24:01.613Z,22.37
2023-09-20T17:26:03.149Z,22.33
2023-09-20T17:28:06.855Z,22.29
2023-09-20T17:30:09.258Z,22.25
2023-09-20T17:32:10.807Z,22.21
2023-09-20T17:34:12.694Z,22.16
2023-09-20T17:36:14.383Z,22.05
2023-09-20T17:38:16.260Z,22.01
2023-09-20T17:40:17.937Z,21.94
2023-09-20T17:42:19.531Z,21.85
2023-09-20T17:44:22.412Z,21.80
2023-09-20T17:46:24.066Z,21.74
2023-09-20T17:48:25.675Z,21.68
2023-09-20T17:50:27.278Z,21.63
2023-09-20T17:52:28.825Z,21.57
2023-09-20T17:54:30.332Z,21.48
2023-09-20T17:56:31.928Z,21.47
2023-09-20T17:58:33.649Z,21.41
2023-09-20T18:00:36.586Z,21.38
2023-09-20T18:02:38.625Z,21.37
2023-09-20T18:04:40.304Z,21.27
2023-09-20T18:06:41.946Z,21.25
2023-09-20T18:08:44.450Z,21.19
2023-09-20T18:10:46.104Z,21.11
2023-09-20T18:12:47.648Z,21.01
2023-09-20T18:14:49.214Z,20.94
2023-09-20T18:16:52.141Z,20.84
2023-09-20T18:18:53.829Z,20.80
2023-09-20T18:20:55.442Z,20.74
2023-09-20T18:22:56.971Z,20.65
2023-09-20T18:24:58.667Z,20.55
2023-09-20T18:27:00.188Z,20.52
2023-09-20T18:29:01.881Z,20.46
2023-09-20T18:31:11.845Z,20.45
2023-09-20T18:33:14.962Z,20.31
2023-09-20T18:35:16.718Z,20.21
2023-09-20T18:37:18.248Z,20.23
2023-09-20T18:39:19.763Z,20.19
2023-09-20T18:41:21.356Z,20.13
2023-09-20T18:43:22.900Z,20.03
2023-09-20T18:45:24.401Z,20.08
2023-09-20T18:47:37.663Z,20.10
2023-09-20T18:49:46.144Z,19.96
2023-09-20T18:51:47.636Z,19.91
2023-09-20T18:53:49.203Z,19.85
2023-09-20T18:55:50.826Z,19.81
2023-09-20T18:57:53.543Z,19.78
2023-09-20T18:59:55.093Z,19.78
2023-09-20T19:01:56.642Z,19.72
2023-09-20T19:03:58.333Z,19.65
2023-09-20T19:06:01.447Z,19.63
2023-09-20T19:08:03.514Z,19.56
2023-09-20T19:10:06.515Z,19.53
2023-09-20T19:12:08.089Z,19.46
2023-09-20T19:14:09.732Z,19.40
2023-09-20T19:16:11.273Z,19.41
2023-09-20T19:18:12.992Z,19.35
2023-09-20T19:20:14.777Z,19.38
2023-09-20T19:22:17.665Z,19.38
2023-09-20T19:24:19.302Z,19.35
2023-09-20T19:26:20.978Z,19.26
2023-09-20T19:28:22.746Z,19.22
2023-09-20T19:30:24.250Z,19.20
2023-09-20T19:32:25.797Z,19.07
2023-09-20T19:34:27.316Z,19.02
2023-09-20T19:36:29.859Z,19.03
2023-09-20T19:38:32.993Z,18.98
2023-09-20T19:40:34.534Z,18.93
2023-09-20T19:42:36.049Z,18.93
2023-09-20T19:44:37.593Z,18.94
2023-09-20T19:46:39.102Z,18.90
2023-09-20T19:48:41.149Z,18.75
2023-09-20T19:50:43.725Z,18.72
2023-09-20T19:52:45.849Z,18.68
2023-09-20T19:54:48.821Z,18.82
2023-09-20T19:56:50.351Z,18.67
2023-09-20T19:58:51.886Z,18.74
2023-09-20T20:00:53.481Z,18.62
2023-09-20T20:02:56.358Z,18.59
2023-09-20T20:04:58.044Z,18.58
2023-09-20T20:07:03.658Z,18.60
2023-09-20T20:09:12.221Z,18.54
2023-09-20T20:11:15.125Z,18.70
2023-09-20T20:13:16.610Z,18.57
2023-09-20T20:15:18.140Z,18.55
2023-09-20T20:17:19.621Z,18.53
2023-09-20T20:19:21.118Z,18.57
2023-09-20T20:21:22.631Z,18.41
2023-09-20T20:23:24.112Z,18.46
2023-09-20T20:25:26.982Z,18.37
2023-09-20T20:27:29.868Z,18.41
2023-09-20T20:29:31.404Z,18.39
2023-09-20T20:31:32.961Z,18.47
2023-09-20T20:33:35.826Z,18.47
2023-09-20T20:35:38.143Z,18.46
2023-09-20T20:37:43.112Z,18.42
2023-09-20T20:39:44.626Z,18.42
2023-09-20T20:41:46.187Z,18.47
2023-09-20T20:43:49.260Z,18.42
2023-09-20T20:45:50.835Z,18.38
2023-09-20T20:47:54.080Z,18.34
2023-09-20T20:49:55.643Z,18.29
2023-09-20T20:51:57.166Z,18.32
2023-09-20T20:53:58.790Z,18.28
2023-09-20T20:56:00.335Z,18.33
2023-09-20T20:58:02.230Z,18.24
2023-09-20T21:00:06.530Z,18.26
2023-09-20T21:02:08.107Z,18.32
2023-09-20T21:04:09.821Z,18.26
2023-09-20T21:06:11.503Z,18.21
2023-09-20T21:08:13.868Z,18.11
2023-09-20T21:10:15.512Z,18.07
2023-09-20T21:12:17.072Z,18.07
2023-09-20T21:14:18.583Z,18.00
2023-09-20T21:16:21.548Z,17.93
2023-09-20T21:18:23.298Z,17.93
2023-09-20T21:20:25.302Z,17.93
2023-09-20T21:22:26.826Z,17.87
2023-09-20T21:24:28.345Z,17.82
2023-09-20T21:26:29.882Z,17.81
2023-09-20T21:28:31.509Z,17.84
2023-09-20T21:30:34.332Z,17.82
2023-09-20T21:32:37.366Z,17.83
2023-09-20T21:34:39.005Z,17.77
2023-09-20T21:36:40.527Z,17.74
2023-09-20T21:38:42.294Z,17.76
2023-09-20T21:40:44.092Z,17.75
2023-09-20T21:42:45.658Z,17.70
2023-09-20T21:44:47.188Z,17.69
2023-09-20T21:46:48.855Z,17.71
2023-09-20T21:48:51.863Z,17.72
2023-09-20T21:50:53.510Z,17.72
2023-09-20T21:52:56.712Z,17.60
2023-09-20T21:54:58.233Z,17.68
2023-09-20T21:56:59.781Z,17.67
2023-09-20T21:59:01.307Z,17.74
2023-09-20T22:01:03.357Z,17.62
2023-09-20T22:03:06.374Z,17.65
2023-09-20T22:05:10.334Z,17.58
2023-09-20T22:07:11.917Z,17.62
2023-09-20T22:09:13.502Z,17.59
2023-09-20T22:11:15.073Z,17.55
2023-09-20T22:13:16.925Z,17.46
2023-09-20T22:15:18.673Z,17.42
2023-09-20T22:17:20.274Z,17.44
2023-09-20T22:19:21.792Z,17.45
2023-09-20T22:21:24.712Z,17.46
2023-09-20T22:23:26.220Z,17.33
2023-09-20T22:25:27.948Z,17.27
2023-09-20T22:27:29.475Z,17.32
2023-09-20T22:29:31.011Z,17.33
2023-09-20T22:31:32.566Z,17.35
2023-09-20T22:33:34.153Z,17.33
2023-09-20T22:35:35.875Z,17.23
2023-09-20T22:37:39.150Z,17.24
2023-09-20T22:39:40.691Z,17.31
2023-09-20T22:41:42.829Z,17.24
2023-09-20T22:43:44.609Z,17.26
2023-09-20T22:45:46.103Z,17.27
2023-09-20T22:47:49.088Z,17.12
2023-09-20T22:49:50.679Z,17.08
2023-09-20T22:51:52.194Z,17.04
2023-09-20T22:53:55.100Z,17.08
2023-09-20T22:55:56.619Z,17.03
2023-09-20T22:57:58.558Z,16.98
2023-09-20T23:00:00.160Z,16.93
2023-09-20T23:02:01.758Z,16.93
2023-09-20T23:04:03.475Z,16.99
2023-09-20T23:06:05.283Z,16.97
2023-09-20T23:08:07.055Z,16.85
2023-09-20T23:10:11.069Z,16.90
2023-09-20T23:12:12.701Z,16.84
2023-09-20T23:14:14.265Z,16.89
2023-09-20T23:16:15.875Z,16.85
2023-09-20T23:18:17.568Z,16.83
2023-09-20T23:20:19.389Z,16.87
2023-09-20T23:22:20.946Z,16.95
2023-09-20T23:24:22.524Z,16.87
2023-09-20T23:26:25.372Z,16.89
2023-09-20T23:28:27.033Z,16.86
2023-09-20T23:30:32.029Z,16.89
2023-09-20T23:32:33.608Z,16.83
2023-09-20T23:34:35.162Z,16.89
2023-09-20T23:36:36.706Z,16.87
2023-09-20T23:38:38.266Z,16.92
2023-09-20T23:40:40.086Z,16.94
2023-09-20T23:42:42.975Z,17.04
2023-09-20T23:44:44.475Z,17.02
2023-09-20T23:46:46.002Z,17.06
2023-09-20T23:48:48.910Z,17.02
2023-09-20T23:51:00.426Z,16.96
2023-09-20T23:53:02.117Z,16.95
2023-09-20T23:55:04.131Z,16.98
2023-09-20T23:57:05.654Z,16.87
2023-09-20T23:59:09.235Z,16.88
